createdAt,value
2022-12-23T00:01:07.816Z,13.52
2022-12-23T00:03:34.840Z,15.45
2022-12-23T00:06:01.408Z,19.10
2022-12-23T00:08:28.098Z,17.83
2022-12-23T00:10:56.713Z,18.77
2022-12-23T00:13:41.462Z,17.05
2022-12-23T00:16:13.895Z,18.27
2022-12-23T00:18:41.391Z,16.33
2022-12-23T00:21:11.437Z,17.83
2022-12-23T00:23:40.186Z,25.38
2022-12-23T00:26:07.143Z,19.50
2022-12-23T00:28:33.900Z,16.15
2022-12-23T00:31:01.750Z,15.95
2022-12-23T00:33:33.894Z,15.80
2022-12-23T00:36:00.927Z,22.98
2022-12-23T00:38:46.590Z,17.85
2022-12-23T00:41:34.232Z,20.02
2022-12-23T00:44:01.708Z,16.42
2022-12-23T00:46:28.250Z,16.73
2022-12-23T00:49:13.395Z,19.17
2022-12-23T00:51:40.018Z,14.55
2022-12-23T00:54:07.489Z,13.23
2022-12-23T00:56:34.299Z,13.90
2022-12-23T00:59:00.792Z,14.27
2022-12-23T01:01:45.852Z,13.93
2022-12-23T01:04:35.650Z,13.57
2022-12-23T01:07:02.807Z,16.10
2022-12-23T01:09:29.368Z,15.38
2022-12-23T01:11:55.772Z,17.53
2022-12-23T01:14:22.589Z,10.43
2022-12-23T01:16:49.447Z,15.75
2022-12-23T01:19:15.960Z,11.10
2022-12-23T01:21:42.375Z,10.40
2022-12-23T01:24:08.908Z,11.63
2022-12-23T01:26:35.641Z,14.50
2022-12-23T01:29:02.456Z,12.48
2022-12-23T01:31:29.560Z,15.30
2022-12-23T01:33:56.469Z,13.43
2022-12-23T01:36:23.691Z,11.37
2022-12-23T01:38:50.845Z,16.20
2022-12-23T01:41:43.376Z,14.05
2022-12-23T01:44:47.083Z,11.70
2022-12-23T01:47:38.502Z,11.55
2022-12-23T01:50:23.831Z,10.93
2022-12-23T01:52:54.087Z,14.63
2022-12-23T01:55:23.963Z,11.75
2022-12-23T01:57:52.931Z,12.50
2022-12-23T02:00:38.123Z,12.55
2022-12-23T02:03:23.010Z,13.07
2022-12-23T02:05:51.480Z,11.38
2022-12-23T02:08:41.462Z,11.32
2022-12-23T02:11:29.533Z,8.40
2022-12-23T02:14:48.455Z,10.63
2022-12-23T02:17:22.436Z,10.53
2022-12-23T02:20:23.084Z,13.48
2022-12-23T02:23:11.415Z,10.18
2022-12-23T02:25:55.499Z,12.13
2022-12-23T02:28:42.161Z,11.82
2022-12-23T02:31:22.125Z,14.23
2022-12-23T02:34:19.081Z,14.95
2022-12-23T02:37:03.838Z,15.85
2022-12-23T02:39:45.472Z,12.55
2022-12-23T02:42:17.394Z,10.38
2022-12-23T02:44:49.688Z,11.57
2022-12-23T02:47:27.720Z,13.35
2022-12-23T02:50:01.716Z,16.58
2022-12-23T02:52:34.154Z,12.35
2022-12-23T02:55:05.755Z,12.38
2022-12-23T02:57:42.532Z,12.00
2022-12-23T03:00:09.898Z,17.30
2022-12-23T03:02:39.577Z,10.05
2022-12-23T03:05:22.768Z,13.27
2022-12-23T03:07:49.262Z,14.43
2022-12-23T03:10:26.348Z,12.73
2022-12-23T03:13:04.908Z,17.50
2022-12-23T03:16:02.322Z,12.85
2022-12-23T03:18:56.871Z,13.55
2022-12-23T03:21:39.099Z,13.40
2022-12-23T03:24:20.818Z,17.53
2022-12-23T03:27:12.234Z,12.55
2022-12-23T03:30:05.802Z,13.07
2022-12-23T03:32:40.726Z,14.57
2022-12-23T03:35:09.536Z,13.85
2022-12-23T03:37:41.435Z,13.03
2022-12-23T03:40:18.351Z,21.27
2022-12-23T03:42:50.338Z,14.95
2022-12-23T03:45:40.638Z,15.23
2022-12-23T03:48:17.979Z,16.05
2022-12-23T03:50:46.167Z,16.10
2022-12-23T03:53:34.946Z,14.25
2022-12-23T03:56:10.307Z,16.70
2022-12-23T03:58:42.350Z,16.95
2022-12-23T04:01:41.047Z,12.20
2022-12-23T04:04:15.081Z,15.37
2022-12-23T04:06:55.564Z,15.13
2022-12-23T04:09:23.362Z,12.60
2022-12-23T04:11:53.389Z,13.43
2022-12-23T04:14:21.347Z,12.05
2022-12-23T04:16:53.169Z,13.27
2022-12-23T04:19:19.673Z,16.95
2022-12-23T04:21:46.053Z,13.70
2022-12-23T04:24:12.457Z,14.00
2022-12-23T04:26:38.804Z,14.73
2022-12-23T04:29:05.267Z,10.40
2022-12-23T04:31:31.930Z,10.55
2022-12-23T04:33:58.368Z,13.15
2022-12-23T04:36:24.794Z,10.80
2022-12-23T04:38:51.202Z,13.15
2022-12-23T04:41:17.607Z,14.90
2022-12-23T04:43:49.240Z,13.10
2022-12-23T04:46:19.311Z,11.07
2022-12-23T04:48:45.767Z,11.13
2022-12-23T04:51:12.193Z,13.20
2022-12-23T04:53:39.066Z,12.83
2022-12-23T04:56:05.638Z,13.05
2022-12-23T04:58:32.049Z,13.27
2022-12-23T05:01:06.816Z,13.23
2022-12-23T05:03:33.459Z,12.95
2022-12-23T05:06:00.609Z,10.33
2022-12-23T05:08:27.563Z,12.38
2022-12-23T05:10:54.066Z,12.55
2022-12-23T05:13:20.509Z,11.35
2022-12-23T05:15:50.027Z,14.35
2022-12-23T05:18:17.035Z,10.83
2022-12-23T05:20:43.783Z,13.25
2022-12-23T05:23:10.677Z,11.43
2022-12-23T05:25:38.279Z,12.95
2022-12-23T05:28:05.781Z,12.75
2022-12-23T05:30:32.327Z,11.57
2022-12-23T05:32:58.925Z,10.82
2022-12-23T05:35:27.349Z,13.38
2022-12-23T05:37:53.873Z,14.55
2022-12-23T05:40:26.878Z,11.00
2022-12-23T05:42:56.160Z,11.70
2022-12-23T05:45:22.739Z,11.15
2022-12-23T05:47:49.159Z,11.63
2022-12-23T05:50:15.699Z,12.50
2022-12-23T05:52:42.138Z,11.93
2022-12-23T05:55:09.063Z,9.83
2022-12-23T05:57:35.525Z,8.57
2022-12-23T06:00:06.113Z,13.82
2022-12-23T06:02:32.635Z,10.93
2022-12-23T06:04:59.272Z,12.10
2022-12-23T06:07:25.717Z,10.73
2022-12-23T06:09:52.108Z,10.13
2022-12-23T06:12:19.717Z,12.23
2022-12-23T06:14:46.667Z,10.18
2022-12-23T06:17:13.080Z,8.27
2022-12-23T06:19:42.475Z,8.37
2022-12-23T06:22:08.878Z,8.02
2022-12-23T06:24:35.329Z,9.80
2022-12-23T06:27:01.768Z,9.90
2022-12-23T06:29:28.167Z,9.95
2022-12-23T06:31:54.829Z,12.23
2022-12-23T06:34:21.327Z,9.43
2022-12-23T06:36:47.738Z,8.65
2022-12-23T06:39:14.340Z,9.80
2022-12-23T06:41:40.785Z,8.70
2022-12-23T06:44:07.751Z,8.43
2022-12-23T06:46:34.142Z,8.15
2022-12-23T06:49:00.525Z,10.10
2022-12-23T06:51:27.038Z,11.50
2022-12-23T06:53:53.423Z,8.43
2022-12-23T06:56:20.101Z,8.60
2022-12-23T06:58:46.629Z,8.40
2022-12-23T07:01:13.275Z,10.38
2022-12-23T07:03:39.798Z,8.55
2022-12-23T07:06:06.698Z,11.73
2022-12-23T07:08:33.191Z,10.23
2022-12-23T07:11:00.567Z,12.70
2022-12-23T07:13:27.399Z,10.00
2022-12-23T07:15:53.947Z,9.13
2022-12-23T07:18:22.772Z,12.02
2022-12-23T07:20:52.378Z,12.00
2022-12-23T07:23:18.825Z,12.27
2022-12-23T07:25:45.212Z,12.50
2022-12-23T07:28:11.793Z,12.30
2022-12-23T07:30:39.904Z,12.15
2022-12-23T07:33:06.385Z,11.67
2022-12-23T07:35:33.031Z,11.32
2022-12-23T07:38:01.663Z,10.70
2022-12-23T07:40:28.244Z,11.85
2022-12-23T07:42:56.871Z,14.50
2022-12-23T07:45:24.046Z,12.43
2022-12-23T07:47:58.629Z,12.82
2022-12-23T07:50:26.322Z,13.60
2022-12-23T07:52:53.856Z,11.45
2022-12-23T07:55:20.917Z,12.60
2022-12-23T07:57:51.958Z,16.13
2022-12-23T08:00:19.661Z,18.02
2022-12-23T08:02:46.931Z,16.58
2022-12-23T08:05:14.270Z,12.95
2022-12-23T08:07:40.998Z,17.42
2022-12-23T08:10:08.545Z,14.80
2022-12-23T08:12:34.918Z,18.63
2022-12-23T08:15:01.486Z,14.40
2022-12-23T08:17:29.831Z,13.27
2022-12-23T08:19:56.917Z,15.35
2022-12-23T08:22:24.097Z,16.60
2022-12-23T08:24:50.671Z,20.08
2022-12-23T08:27:17.775Z,17.83
2022-12-23T08:29:44.439Z,17.25
2022-12-23T08:32:10.948Z,18.33
2022-12-23T08:34:37.429Z,20.33
2022-12-23T08:37:03.875Z,18.77
2022-12-23T08:39:30.587Z,18.10
2022-12-23T08:41:57.208Z,21.85
2022-12-23T08:44:27.045Z,21.58
2022-12-23T08:46:54.962Z,21.67
2022-12-23T08:49:21.711Z,20.88
2022-12-23T08:51:48.331Z,21.67
2022-12-23T08:54:16.585Z,27.90
2022-12-23T08:56:43.188Z,23.13
2022-12-23T08:59:20.048Z,19.83
2022-12-23T09:01:47.717Z,24.75
2022-12-23T09:04:14.466Z,23.33
2022-12-23T09:06:42.863Z,20.30
2022-12-23T09:09:11.892Z,23.17
2022-12-23T09:11:38.885Z,20.27
2022-12-23T09:14:07.171Z,20.77
2022-12-23T09:16:36.029Z,23.35
2022-12-23T09:19:03.641Z,23.88
2022-12-23T09:21:30.143Z,24.77
2022-12-23T09:23:56.553Z,25.17
2022-12-23T09:26:26.120Z,22.83
2022-12-23T09:28:52.949Z,24.92
2022-12-23T09:31:20.081Z,25.85
2022-12-23T09:33:48.776Z,27.77
2022-12-23T09:36:15.587Z,28.37
2022-12-23T09:38:42.043Z,23.02
2022-12-23T09:41:32.187Z,33.38
2022-12-23T09:44:16.886Z,21.88
2022-12-23T09:46:51.457Z,22.45
2022-12-23T09:49:19.461Z,25.73
2022-12-23T09:51:48.830Z,31.40
2022-12-23T09:54:21.230Z,31.67
2022-12-23T09:56:56.721Z,27.98
2022-12-23T09:59:57.928Z,36.53
2022-12-23T10:02:30.609Z,35.83
2022-12-23T10:05:13.306Z,36.13
2022-12-23T10:07:58.679Z,30.80
2022-12-23T10:10:46.919Z,35.67
2022-12-23T10:13:37.592Z,26.17
2022-12-23T10:16:14.818Z,24.37
2022-12-23T10:18:47.307Z,24.45
2022-12-23T10:21:23.486Z,31.33
2022-12-23T10:23:52.408Z,24.20
2022-12-23T10:26:21.614Z,19.80
2022-12-23T10:28:48.179Z,19.50
2022-12-23T10:31:39.784Z,21.25
2022-12-23T10:34:38.610Z,21.05
2022-12-23T10:37:15.097Z,21.90
2022-12-23T10:40:23.296Z,20.80
2022-12-23T10:42:49.683Z,19.20
2022-12-23T10:45:26.276Z,21.92
2022-12-23T10:48:12.035Z,22.15
2022-12-23T10:51:03.390Z,19.42
2022-12-23T10:53:41.882Z,21.95
2022-12-23T10:56:08.577Z,17.63
2022-12-23T10:58:42.398Z,20.63
2022-12-23T11:01:18.922Z,20.35
2022-12-23T11:03:58.543Z,22.08
2022-12-23T11:06:30.248Z,21.58
2022-12-23T11:09:02.928Z,23.73
2022-12-23T11:11:54.313Z,29.05
2022-12-23T11:14:34.159Z,21.95
2022-12-23T11:17:00.792Z,28.90
2022-12-23T11:19:27.769Z,24.90
2022-12-23T11:22:01.748Z,27.77
2022-12-23T11:24:37.977Z,27.95
2022-12-23T11:27:13.976Z,27.83
2022-12-23T11:29:47.056Z,28.00
2022-12-23T11:32:23.811Z,28.52
2022-12-23T11:34:51.263Z,25.00
2022-12-23T11:37:34.808Z,28.33
2022-12-23T11:40:01.294Z,24.50
2022-12-23T11:42:30.728Z,30.23
2022-12-23T11:44:59.576Z,33.10
2022-12-23T11:47:35.600Z,35.77
2022-12-23T11:50:23.956Z,35.28
2022-12-23T11:53:19.605Z,37.22
2022-12-23T11:55:58.420Z,31.90
2022-12-23T11:58:25.617Z,34.33
2022-12-23T12:00:58.999Z,41.27
2022-12-23T12:03:35.430Z,42.55
2022-12-23T12:06:06.772Z,44.15
2022-12-23T12:08:37.787Z,44.63
2022-12-23T12:11:18.202Z,42.22
2022-12-23T12:13:50.030Z,41.77
2022-12-23T12:16:40.391Z,38.20
2022-12-23T12:19:16.706Z,42.58
2022-12-23T12:21:44.728Z,38.83
2022-12-23T12:24:18.657Z,50.20
2022-12-23T12:26:51.109Z,34.50
2022-12-23T12:29:17.704Z,36.38
2022-12-23T12:31:48.445Z,38.70
2022-12-23T12:34:38.773Z,34.72
2022-12-23T12:37:24.269Z,36.83
2022-12-23T12:40:04.285Z,34.77
2022-12-23T12:42:55.256Z,37.72
2022-12-23T12:45:27.212Z,35.42
2022-12-23T12:48:21.030Z,29.48
2022-12-23T12:51:05.715Z,29.60
2022-12-23T12:53:34.447Z,29.83
2022-12-23T12:56:12.206Z,29.10
2022-12-23T12:58:40.669Z,27.60
2022-12-23T13:01:32.248Z,29.55
2022-12-23T13:04:17.959Z,33.65
2022-12-23T13:06:59.578Z,27.67
2022-12-23T13:09:56.361Z,26.75
2022-12-23T13:12:52.160Z,29.15
2022-12-23T13:15:25.719Z,31.08
2022-12-23T13:18:20.657Z,28.00
2022-12-23T13:21:14.495Z,29.47
2022-12-23T13:23:53.077Z,27.63
2022-12-23T13:26:28.727Z,33.45
2022-12-23T13:29:47.486Z,29.90
2022-12-23T13:32:36.738Z,29.67
2022-12-23T13:35:35.139Z,26.77
2022-12-23T13:38:13.749Z,23.25
2022-12-23T13:40:53.134Z,26.30
2022-12-23T13:43:25.357Z,26.00
2022-12-23T13:45:55.313Z,30.27
2022-12-23T13:48:51.767Z,31.80
2022-12-23T13:51:18.192Z,27.77
2022-12-23T13:53:53.261Z,33.25
2022-12-23T13:56:30.576Z,29.35
2022-12-23T13:58:57.684Z,27.92
2022-12-23T14:01:46.531Z,26.20
2022-12-23T14:04:31.611Z,26.05
2022-12-23T14:07:19.137Z,25.08
2022-12-23T14:09:52.147Z,23.90
2022-12-23T14:12:25.926Z,23.67
2022-12-23T14:15:19.669Z,25.20
2022-12-23T14:18:31.134Z,26.98
2022-12-23T14:21:27.518Z,28.52
2022-12-23T14:24:23.753Z,28.90
2022-12-23T14:27:27.925Z,23.95
2022-12-23T14:30:10.026Z,22.80
2022-12-23T14:32:59.453Z,23.67
2022-12-23T14:35:34.371Z,21.42
2022-12-23T14:38:22.521Z,24.42
2022-12-23T14:40:52.651Z,22.83
2022-12-23T14:43:22.163Z,23.20
2022-12-23T14:46:02.148Z,26.55
2022-12-23T14:48:34.382Z,22.77
2022-12-23T14:51:01.931Z,24.20
2022-12-23T14:53:30.008Z,21.23
2022-12-23T14:56:14.776Z,22.03
2022-12-23T14:58:59.587Z,22.20
2022-12-23T15:01:47.969Z,20.85
2022-12-23T15:04:17.863Z,17.80
2022-12-23T15:06:48.302Z,22.35
2022-12-23T15:09:28.872Z,22.00
2022-12-23T15:11:57.562Z,23.17
2022-12-23T15:14:38.572Z,19.90
2022-12-23T15:17:23.951Z,25.38
2022-12-23T15:19:50.426Z,20.95
2022-12-23T15:22:25.331Z,21.97
2022-12-23T15:24:56.626Z,19.85
2022-12-23T15:27:28.427Z,20.23
2022-12-23T15:29:55.694Z,22.02
2022-12-23T15:32:24.667Z,19.88
2022-12-23T15:34:53.068Z,14.93
2022-12-23T15:37:27.656Z,18.52
2022-12-23T15:40:03.463Z,17.48
2022-12-23T15:42:35.382Z,22.20
2022-12-23T15:45:26.917Z,20.58
2022-12-23T15:47:54.068Z,17.57
2022-12-23T15:50:20.636Z,23.42
2022-12-23T15:52:50.280Z,19.30
2022-12-23T15:55:29.512Z,20.48
2022-12-23T15:57:56.783Z,18.83
2022-12-23T16:00:26.359Z,19.90
2022-12-23T16:03:01.051Z,18.92
2022-12-23T16:05:35.502Z,19.33
2022-12-23T16:08:31.732Z,20.85
2022-12-23T16:11:10.113Z,24.20
2022-12-23T16:13:41.491Z,24.57
2022-12-23T16:16:36.625Z,26.48
2022-12-23T16:19:03.441Z,20.13
2022-12-23T16:21:34.640Z,21.52
2022-12-23T16:24:03.116Z,23.90
2022-12-23T16:26:29.640Z,24.37
2022-12-23T16:29:01.683Z,22.65
2022-12-23T16:31:28.178Z,74.53
2022-12-23T16:33:58.034Z,51.45
2022-12-23T16:36:27.622Z,39.63
2022-12-23T16:39:09.254Z,20.90
2022-12-23T16:41:36.071Z,19.08
2022-12-23T16:44:04.884Z,20.40
2022-12-23T16:46:36.337Z,16.83
2022-12-23T16:49:05.176Z,21.40
2022-12-23T16:51:34.178Z,17.43
2022-12-23T16:54:01.815Z,16.15
2022-12-23T16:56:31.822Z,19.73
2022-12-23T16:58:58.441Z,21.25
2022-12-23T17:01:34.087Z,20.38
2022-12-23T17:04:00.581Z,17.07
2022-12-23T17:06:27.714Z,16.20
2022-12-23T17:08:54.847Z,17.63
2022-12-23T17:11:33.227Z,19.65
2022-12-23T17:14:04.705Z,21.77
2022-12-23T17:16:33.345Z,23.00
2022-12-23T17:19:00.189Z,20.90
2022-12-23T17:21:30.724Z,18.73
2022-12-23T17:24:11.756Z,23.42
2022-12-23T17:26:38.563Z,19.00
2022-12-23T17:29:05.724Z,29.87
2022-12-23T17:31:33.903Z,29.50
2022-12-23T17:34:01.734Z,30.33
2022-12-23T17:36:28.820Z,28.08
2022-12-23T17:38:55.458Z,25.65
2022-12-23T17:41:28.198Z,26.50
2022-12-23T17:43:55.095Z,30.48
2022-12-23T17:46:21.998Z,30.13
2022-12-23T17:48:48.722Z,26.55
2022-12-23T17:51:17.245Z,21.52
2022-12-23T17:53:44.745Z,21.53
2022-12-23T17:56:13.881Z,20.23
2022-12-23T17:58:41.260Z,18.88
2022-12-23T18:01:20.554Z,20.85
2022-12-23T18:03:47.385Z,23.67
2022-12-23T18:06:15.863Z,18.13
2022-12-23T18:08:42.663Z,18.88
2022-12-23T18:11:17.023Z,14.57
2022-12-23T18:13:43.857Z,20.17
2022-12-23T18:16:12.648Z,16.40
2022-12-23T18:18:46.356Z,27.97
2022-12-23T18:21:26.360Z,23.23
2022-12-23T18:23:56.600Z,22.75
2022-12-23T18:26:23.596Z,19.58
2022-12-23T18:28:51.283Z,18.95
2022-12-23T18:31:21.601Z,15.50
2022-12-23T18:33:48.322Z,18.13
2022-12-23T18:36:27.043Z,15.02
2022-12-23T18:38:54.712Z,18.90
2022-12-23T18:41:22.204Z,19.88
2022-12-23T18:43:49.172Z,28.03
2022-12-23T18:46:15.991Z,29.88
2022-12-23T18:48:43.037Z,26.70
2022-12-23T18:51:20.997Z,28.27
2022-12-23T18:53:47.822Z,28.73
2022-12-23T18:56:22.667Z,35.03
2022-12-23T18:58:49.136Z,35.67
2022-12-23T19:01:17.393Z,41.67
2022-12-23T19:03:45.020Z,36.38
2022-12-23T19:06:15.658Z,30.38
2022-12-23T19:08:42.752Z,35.43
2022-12-23T19:11:18.671Z,32.78
2022-12-23T19:13:45.724Z,29.70
2022-12-23T19:16:18.238Z,30.67
2022-12-23T19:18:45.740Z,26.38
2022-12-23T19:21:12.460Z,34.00
2022-12-23T19:23:40.701Z,29.35
2022-12-23T19:26:09.635Z,33.20
2022-12-23T19:28:41.405Z,32.13
2022-12-23T19:31:09.232Z,32.35
2022-12-23T19:33:37.502Z,27.47
2022-12-23T19:36:15.435Z,32.00
2022-12-23T19:38:42.110Z,35.03
2022-12-23T19:41:09.517Z,32.40
2022-12-23T19:43:37.634Z,20.90
2022-12-23T19:46:07.939Z,25.37
2022-12-23T19:48:34.644Z,41.65
2022-12-23T19:51:05.320Z,33.70
2022-12-23T19:53:31.980Z,35.25
2022-12-23T19:56:00.399Z,41.03
2022-12-23T19:58:28.531Z,40.63
2022-12-23T20:01:09.229Z,33.95
2022-12-23T20:03:36.880Z,28.60
2022-12-23T20:06:05.390Z,28.92
2022-12-23T20:08:32.844Z,21.02
2022-12-23T20:11:08.171Z,29.07
2022-12-23T20:13:35.488Z,33.78
2022-12-23T20:16:02.444Z,25.02
2022-12-23T20:18:29.234Z,34.50
2022-12-23T20:20:55.838Z,31.30
2022-12-23T20:23:22.581Z,33.13
2022-12-23T20:25:49.538Z,25.30
2022-12-23T20:28:16.198Z,30.52
2022-12-23T20:30:42.707Z,29.77
2022-12-23T20:33:10.226Z,24.02
2022-12-23T20:35:36.993Z,23.23
2022-12-23T20:38:03.820Z,30.52
2022-12-23T20:40:30.390Z,26.08
2022-12-23T20:42:58.204Z,23.02
2022-12-23T20:45:25.760Z,27.45
2022-12-23T20:47:53.984Z,26.67
2022-12-23T20:50:21.326Z,23.13
2022-12-23T20:52:47.707Z,25.60
2022-12-23T20:55:14.189Z,25.55
2022-12-23T20:57:40.701Z,16.10
2022-12-23T21:00:07.717Z,22.67
2022-12-23T21:02:34.174Z,24.33
2022-12-23T21:05:00.741Z,19.00
2022-12-23T21:07:28.708Z,18.38
2022-12-23T21:09:55.119Z,21.70
2022-12-23T21:12:21.575Z,18.67
2022-12-23T21:14:48.078Z,15.88
2022-12-23T21:17:14.482Z,19.52
2022-12-23T21:19:40.875Z,15.88
2022-12-23T21:22:08.243Z,23.80
2022-12-23T21:24:34.661Z,22.23
2022-12-23T21:27:01.125Z,16.65
2022-12-23T21:29:27.640Z,20.05
2022-12-23T21:31:55.085Z,23.40
2022-12-23T21:34:21.884Z,15.27
2022-12-23T21:36:48.350Z,14.33
2022-12-23T21:39:15.924Z,15.73
2022-12-23T21:41:42.999Z,16.75
2022-12-23T21:44:11.437Z,17.38
2022-12-23T21:46:37.865Z,14.88
2022-12-23T21:49:04.339Z,16.33
2022-12-23T21:51:40.313Z,20.88
2022-12-23T21:54:09.691Z,15.02
2022-12-23T21:56:36.761Z,13.88
2022-12-23T21:59:14.121Z,23.38
2022-12-23T22:01:42.067Z,14.03
2022-12-23T22:04:08.714Z,12.35
2022-12-23T22:06:38.218Z,8.30
2022-12-23T22:09:06.714Z,14.77
2022-12-23T22:11:35.072Z,11.32
2022-12-23T22:14:02.784Z,17.33
2022-12-23T22:16:31.077Z,17.10
2022-12-23T22:18:59.160Z,17.83
2022-12-23T22:21:27.478Z,13.98
2022-12-23T22:23:54.752Z,17.88
2022-12-23T22:26:25.635Z,16.13
2022-12-23T22:28:54.208Z,16.42
2022-12-23T22:31:37.952Z,20.80
2022-12-23T22:34:05.756Z,21.30
2022-12-23T22:36:33.244Z,18.73
2022-12-23T22:39:01.326Z,23.23
2022-12-23T22:41:29.310Z,14.18
2022-12-23T22:43:57.075Z,18.23
2022-12-23T22:46:24.611Z,12.10
2022-12-23T22:48:51.794Z,16.15
2022-12-23T22:51:21.626Z,13.60
2022-12-23T22:53:48.791Z,23.27
2022-12-23T22:56:17.124Z,21.90
2022-12-23T22:58:43.866Z,15.80
2022-12-23T23:01:31.899Z,19.33
2022-12-23T23:04:00.756Z,27.33
2022-12-23T23:06:38.466Z,19.73
2022-12-23T23:09:11.786Z,15.27
2022-12-23T23:11:38.421Z,19.17
2022-12-23T23:14:05.451Z,16.55
2022-12-23T23:16:32.343Z,23.83
2022-12-23T23:18:59.780Z,33.22
2022-12-23T23:21:26.458Z,22.05
2022-12-23T23:23:52.929Z,21.40
2022-12-23T23:26:20.586Z,24.83
2022-12-23T23:28:47.166Z,16.13
2022-12-23T23:31:41.438Z,16.70
2022-12-23T23:34:00.711Z,14.43
2022-12-23T23:36:27.287Z,21.85
2022-12-23T23:38:53.810Z,13.50
2022-12-23T23:41:23.404Z,14.80
2022-12-23T23:43:50.873Z,17.45
2022-12-23T23:46:17.365Z,24.80
2022-12-23T23:48:43.839Z,23.30
2022-12-23T23:51:10.257Z,18.05
2022-12-23T23:53:36.704Z,21.07
2022-12-23T23:56:07.350Z,22.48
2022-12-23T23:58:35.821Z,17.15
